Flight Track Log - Related Links

Times and Time Zones

All times are in EDT time to prevent confusion due to time zone crossing. See the N712WB flight status page for this flight to view local times or setup timezone preferences in your user account.

Time Position Orientation Groundspeed Altitude Reporting Facility
EDT Latitude Longitude Course Direction KTS MPH feet Rate Location/Type
Fri 01:48:27 PM 45.7981 -111.2156 126° Southeast 209 241 6,700  Level Salt Lake Center
Fri 01:49:29 PM 45.7450 -111.2758 218° Southwest 223 257 10,300 3,097 Climbing Salt Lake Center
Fri 01:50:31 PM 45.6869 -111.2322 152° Southeast 243 280 13,100 2,032 Climbing Salt Lake Center
Fri 01:51:33 PM 45.6372 -111.1464 130° Southeast 293 337 14,500 1,887 Climbing Salt Lake Center
Fri 01:52:35 PM 45.6317 -111.0125 93° East 343 395 17,000 2,081 Climbing Salt Lake Center
Fri 01:53:00 PM 45.2808 -110.1949 126° Southeast  Level Estimated
Fri 01:53:37 PM 45.6408 -110.8411 86° East 366 421 18,800  Level Salt Lake Center
Fri 01:54:40 PM 45.6478 -110.6706 87° East 432 497 19,500 1,344 Climbing Salt Lake Center
Fri 01:55:42 PM 45.6611 -110.4778 84° East 445 512 21,600 1,839 Climbing Salt Lake Center
Fri 01:56:44 PM 45.6714 -110.2972 85° East 454 522 23,300 1,597 Climbing Salt Lake Center
Fri 01:57:46 PM 45.6433 -110.1206 103° East 462 532 24,900 1,645 Climbing Salt Lake Center
Fri 01:58:48 PM 45.5669 -109.9775 127° Southeast 452 520 26,700 1,645 Climbing Salt Lake Center
Fri 01:59:50 PM 45.4819 -109.8436 132° Southeast 454 522 28,300 1,548 Climbing Salt Lake Center
Fri 02:00:52 PM 45.3961 -109.7064 132° Southeast 463 533 29,900 1,597 Climbing Salt Lake Center
Fri 02:01:54 PM 45.2894 -109.5397 132° Southeast 474 545 31,600 1,452 Climbing Salt Lake Center
Fri 02:02:56 PM 45.1994 -109.3978 132° Southeast 483 556 32,900 1,258 Climbing Salt Lake Center
Fri 02:03:58 PM 45.1069 -109.2539 132° Southeast 493 567 34,200 1,500 Climbing Salt Lake Center
Fri 02:05:00 PM 45.0142 -109.1097 132° Southeast 497 572 36,000 1,597 Climbing Salt Lake Center
Fri 02:06:02 PM 44.9211 -108.9678 133° Southeast 493 567 37,500 1,452 Climbing Salt Lake Center
Fri 02:07:04 PM 44.8297 -108.8264 132° Southeast 491 565 39,000 1,403 Climbing Salt Lake Center
Fri 02:08:06 PM 44.7186 -108.6564 133° Southeast 496 571 40,400 968 Climbing Salt Lake Center
Fri 02:09:08 PM 44.6253 -108.5158 133° Southeast 497 572 41,000 290 Climbing Salt Lake Center
Fri 02:10:10 PM 44.5283 -108.3692 133° Southeast 516 594 41,000  Level Salt Lake Center
Fri 02:11:12 PM 44.4278 -108.2175 133° Southeast 534 615 41,000  Level Salt Lake Center
Fri 02:12:14 PM 44.3044 -108.0336 133° Southeast 545 627 41,000  Level Salt Lake Center
Fri 02:13:16 PM 44.2017 -107.8800 133° Southeast 546 628 41,000  Level Salt Lake Center
Fri 02:14:18 PM 44.0983 -107.7269 133° Southeast 547 629 41,000  Level Salt Lake Center
Fri 02:15:20 PM 43.9936 -107.5728 133° Southeast 549 632 41,000  Level Salt Lake Center
Fri 02:16:22 PM 43.8883 -107.4208 134° Southeast 550 633 41,000  Level Salt Lake Center
Fri 02:17:25 PM 43.7819 -107.2675 134° Southeast 553 636 41,000  Level Salt Lake Center
Fri 02:18:27 PM 43.6550 -107.0814 133° Southeast 556 640 41,000  Level Salt Lake Center
Fri 02:19:29 PM 43.5486 -106.9325 135° Southeast 551 634 41,000  Level Salt Lake Center
Fri 02:20:31 PM 43.4439 -106.7828 134° Southeast 556 640 41,000  Level Salt Lake Center
Fri 02:21:33 PM 43.3233 -106.6117 134° Southeast 558 642 41,000  Level Salt Lake Center
Fri 02:22:35 PM 43.2206 -106.4647 134° Southeast 557 641 41,000  Level Salt Lake Center
Fri 02:23:37 PM 43.1006 -106.2942 134° Southeast 557 641 41,000  Level Salt Lake Center
Fri 02:24:39 PM 43.0117 -106.1297 126° Southeast 559 643 41,000  Level Salt Lake Center
Fri 02:25:41 PM 42.9075 -105.9364 126° Southeast 564 649 41,000  Level Salt Lake Center
Fri 02:26:43 PM 42.8197 -105.7719 126° Southeast 563 648 41,000  Level Salt Lake Center
Fri 02:28:11 PM 42.6853 -105.5253 127° Southeast 566 651 41,000  Level Denver Center
Fri 02:29:13 PM 42.5808 -105.3336 126° Southeast 567 652 41,000  Level Denver Center
Fri 02:30:16 PM 42.4906 -105.1694 127° Southeast 570 656 41,000  Level Denver Center
Fri 02:31:30 PM 42.3689 -104.9511 127° Southeast 573 659 41,000  Level Denver Center
Fri 02:32:32 PM 42.2608 -104.7589 127° Southeast 580 667 41,000  Level Denver Center
Fri 02:33:34 PM 42.1692 -104.5961 127° Southeast 577 664 41,000  Level Denver Center
Fri 02:34:48 PM 42.0617 -104.4039 127° Southeast 579 666 41,000  Level Denver Center
Fri 02:35:51 PM 41.9386 -104.1856 127° Southeast 576 663 41,000  Level Denver Center
Fri 02:36:53 PM 41.8464 -104.0233 127° Southeast 573 659 41,000  Level Denver Center
Fri 02:37:55 PM 41.7369 -103.8353 128° Southeast 574 661 41,000  Level Denver Center
Fri 02:38:57 PM 41.6444 -103.6739 127° Southeast 572 658 41,000  Level Denver Center
Fri 02:39:59 PM 41.5358 -103.4856 128° Southeast 573 659 41,000  Level Denver Center
Fri 02:41:01 PM 41.4406 -103.3267 129° Southeast 574 661 41,000  Level Denver Center
Fri 02:42:15 PM 41.3319 -103.1400 128° Southeast 572 658 41,000  Level Denver Center
Fri 02:43:18 PM 41.2142 -102.9386 128° Southeast 576 663 41,000  Level Denver Center
Fri 02:44:20 PM 41.1189 -102.7811 129° Southeast 573 659 41,000  Level Denver Center
Fri 02:45:22 PM 41.0089 -102.5975 128° Southeast 572 658 41,000  Level Denver Center
Fri 02:46:24 PM 40.9133 -102.4400 129° Southeast 574 661 41,000  Level Denver Center
Fri 02:47:26 PM 40.8036 -102.2564 128° Southeast 571 657 41,000  Level Denver Center
Fri 02:48:28 PM 40.7086 -102.1006 129° Southeast 570 656 41,000  Level Denver Center
Fri 02:49:30 PM 40.5967 -101.9178 129° Southeast 575 662 41,000  Level Denver Center
Fri 02:50:32 PM 40.5003 -101.7622 129° Southeast 575 662 41,000  Level Denver Center
Fri 02:51:34 PM 40.3892 -101.5819 129° Southeast 572 658 41,000  Level Denver Center
Fri 02:52:48 PM 40.2936 -101.4289 129° Southeast 571 657 41,000  Level Denver Center
Fri 02:53:51 PM 40.1647 -101.2214 129° Southeast 578 665 41,000  Level Denver Center
Fri 02:54:52 PM 40.0850 -101.0939 129° Southeast 574 661 41,000  Level Denver Center
Fri 02:55:55 PM 39.9553 -100.8886 129° Southeast 578 665 41,000  Level Denver Center
Fri 02:56:57 PM 39.8422 -100.7114 130° Southeast 574 661 41,000  Level Denver Center
Fri 02:57:59 PM 39.7450 -100.5597 130° Southeast 573 659 41,000  Level Denver Center
Fri 02:59:01 PM 39.6475 -100.4072 130° Southeast 574 661 41,000  Level Denver Center
Fri 03:00:03 PM 39.5339 -100.2306 130° Southeast 573 659 41,000  Level Denver Center
Fri 03:01:05 PM 39.4533 -100.1067 130° Southeast 568 654 41,000  Level Denver Center
Fri 03:02:08 PM 39.3233 -99.9072 130° Southeast 569 655 41,000  Level Denver Center
Fri 03:03:10 PM 39.2175 -99.7475 131° Southeast 568 654 41,000  Level Denver Center
Fri 03:04:18 PM 39.1019 -99.5697 130° Southeast 579 666 41,000  Level Kansas City Center
Fri 03:05:19 PM 39.0119 -99.4358 131° Southeast 572 658 41,000  Level Kansas City Center
Fri 03:06:23 PM 38.8881 -99.2528 131° Southeast 567 652 41,000  Level Kansas City Center
Fri 03:07:24 PM 38.7864 -99.0983 130° Southeast 566 651 41,000  Level Kansas City Center
Fri 03:08:27 PM 38.6831 -98.9447 131° Southeast 568 654 41,000  Level Kansas City Center
Fri 03:09:28 PM 38.5800 -98.7931 131° Southeast 566 651 41,000  Level Kansas City Center
Fri 03:10:29 PM 38.4772 -98.6411 131° Southeast 565 650 41,000  Level Kansas City Center
Fri 03:11:31 PM 38.3744 -98.4906 131° Southeast 565 650 41,000  Level Kansas City Center
Fri 03:12:35 PM 38.2506 -98.3108 131° Southeast 563 648 41,000  Level Kansas City Center
Fri 03:13:35 PM 38.1478 -98.1606 131° Southeast 562 647 41,000  Level Kansas City Center
Fri 03:14:38 PM 38.0375 -98.0017 131° Southeast 559 643 41,000  Level Kansas City Center
Fri 03:15:40 PM 37.9322 -97.8519 132° Southeast 561 646 41,000  Level Kansas City Center
Fri 03:16:44 PM 37.8261 -97.7003 132° Southeast 566 651 41,000  Level Kansas City Center
Fri 03:17:44 PM 37.7208 -97.5539 132° Southeast 566 651 41,000  Level Kansas City Center
Fri 03:18:47 PM 37.6069 -97.4222 137° Southeast 546 628 41,000  Level Kansas City Center
Fri 03:19:48 PM 37.4931 -97.2911 138° Southeast 554 638 41,000  Level Kansas City Center
Fri 03:20:49 PM 37.3794 -97.1581 137° Southeast 556 640 41,000  Level Kansas City Center
Fri 03:21:53 PM 37.2411 -97.0019 138° Southeast 557 641 41,000  Level Kansas City Center
Fri 03:22:53 PM 37.1261 -96.8719 138° Southeast 556 640 41,000  Level Kansas City Center
Fri 03:23:57 PM 37.0106 -96.7428 138° Southeast 554 638 41,000  Level Kansas City Center
Fri 03:24:58 PM 36.8981 -96.6150 138° Southeast 550 633 41,000  Level Kansas City Center
Fri 03:26:01 PM 36.7858 -96.4844 137° Southeast 551 634 41,000  Level Kansas City Center
Fri 03:27:02 PM 36.6725 -96.3578 138° Southeast 550 633 41,000  Level Kansas City Center
Fri 03:28:05 PM 36.5372 -96.2056 138° Southeast 548 631 41,000  Level Kansas City Center
Fri 03:29:06 PM 36.4236 -96.0817 139° Southeast 546 628 41,000  Level Kansas City Center
Fri 03:30:09 PM 36.3108 -95.9553 138° Southeast 549 632 41,000  Level Kansas City Center
Fri 03:31:10 PM 36.1983 -95.8308 138° Southeast 548 631 41,000  Level Kansas City Center
Fri 03:32:14 PM 36.0706 -95.6900 138° Southeast 549 632 41,000  Level Kansas City Center
Fri 03:33:14 PM 35.9500 -95.5581 138° Southeast 547 629 41,000  Level Kansas City Center
Fri 03:34:16 PM 35.8367 -95.4339 138° Southeast 547 629 41,000  Level Kansas City Center
Fri 03:35:18 PM 35.7225 -95.3100 139° Southeast 549 632 41,000  Level Kansas City Center
Fri 03:36:21 PM 35.6075 -95.1858 139° Southeast 550 633 41,000  Level Kansas City Center
Fri 03:37:21 PM 35.4881 -95.0639 140° Southeast 547 629 41,000  Level Memphis Center
Fri 03:38:21 PM 35.3717 -94.9428 140° Southeast 552 635 41,000  Level Memphis Center
Fri 03:39:21 PM 35.2572 -94.8197 139° Southeast 552 635 41,000  Level Memphis Center
Fri 03:40:21 PM 35.1447 -94.6994 139° Southeast 552 635 41,000  Level Memphis Center
Fri 03:41:21 PM 35.0200 -94.5586 137° Southeast 557 641 41,000  Level Memphis Center
Fri 03:42:21 PM 34.9153 -94.4469 139° Southeast 562 647 41,000  Level Memphis Center
Fri 03:43:21 PM 34.8042 -94.3353 140° Southeast 551 634 41,000  Level Memphis Center
Fri 03:44:21 PM 34.6892 -94.2089 138° Southeast 551 634 41,000  Level Memphis Center
Fri 03:45:21 PM 34.5758 -94.0953 140° Southeast 546 628 41,000  Level Memphis Center
Fri 03:46:54 PM 34.3956 -93.9028 139° Southeast 535 616 41,000  Level Fort Worth Center
Fri 03:47:54 PM 34.2858 -93.7889 139° Southeast 529 609 41,000  Level Fort Worth Center
Fri 03:48:54 PM 34.1739 -93.6706 139° Southeast 529 609 41,000  Level Fort Worth Center
Fri 03:49:54 PM 34.0619 -93.5578 140° Southeast 524 603 41,000  Level Fort Worth Center
Fri 03:50:54 PM 33.9497 -93.4375 138° Southeast 524 603 41,000  Level Fort Worth Center
Fri 03:51:54 PM 33.8378 -93.3275 141° Southeast 524 603 41,000  Level Fort Worth Center
Fri 03:52:54 PM 33.7233 -93.2106 140° Southeast 524 603 41,000  Level Fort Worth Center
Fri 03:53:54 PM 33.6108 -93.0961 140° Southeast 529 609 41,000  Level Fort Worth Center
Fri 03:54:54 PM 33.4961 -92.9797 140° Southeast 529 609 41,000  Level Fort Worth Center
Fri 03:55:54 PM 33.3814 -92.8661 140° Southeast 535 616 41,000  Level Fort Worth Center
Fri 03:56:54 PM 33.2689 -92.7553 141° Southeast 535 616 41,000  Level Fort Worth Center
Fri 03:57:54 PM 33.1500 -92.6475 143° Southeast 535 616 41,000  Level Fort Worth Center
Fri 03:58:54 PM 33.0314 -92.5422 143° Southeast 535 616 41,000  Level Fort Worth Center
Fri 03:59:54 PM 32.9081 -92.4350 144° Southeast 542 624 41,000  Level Fort Worth Center
Fri 04:00:54 PM 32.8064 -92.3419 142° Southeast 536 617 41,000  Level Fort Worth Center
Fri 04:01:54 PM 32.6872 -92.2375 144° Southeast 536 617 41,000 -667 Level Fort Worth Center
Fri 04:03:54 PM 32.4517 -92.0419 145° Southeast 525 604 39,000 -1,033 Descending Fort Worth Center
Fri 04:05:23 PM 32.2653 -91.8794 144° Southeast 529 609 37,400 -1,033 Descending Houston Center
Fri 04:06:25 PM 32.1425 -91.7750 144° Southeast 540 621 36,400 -968 Descending Houston Center
Fri 04:07:27 PM 32.0250 -91.6736 144° Southeast 524 603 35,400 -1,355 Descending Houston Center
Fri 04:08:29 PM 31.9047 -91.5719 144° Southeast 528 608 33,600 -2,323 Descending Houston Center
Fri 04:09:31 PM 31.7825 -91.4683 144° Southeast 537 618 30,600 -2,855 Descending Houston Center
Fri 04:10:33 PM 31.6594 -91.3647 144° Southeast 539 620 27,700 -3,097 Descending Houston Center
Fri 04:11:35 PM 31.5242 -91.2511 144° Southeast 503 579 24,200 -2,565 Descending Houston Center
Fri 04:12:37 PM 31.4114 -91.1708 149° Southeast 477 549 22,400 -2,032 Descending Houston Center
Fri 04:13:39 PM 31.3042 -91.0972 150° Southeast 458 527 20,000 -2,323 Descending Houston Center
Fri 04:14:41 PM 31.2000 -91.0258 150° Southeast 440 506 17,600 -2,371 Descending Houston Center
Fri 04:15:43 PM 31.0958 -90.9553 150° Southeast 436 502 15,100 -2,922 Descending Houston Center
Fri 04:16:36 PM 31.0006 -90.8864 148° Southeast 395 455 12,000 -2,226 Descending Houston Center
Fri 04:17:47 PM 30.9147 -90.7969 138° Southeast 353 406 10,500 -1,629 Descending Houston Center
Fri 04:18:56 PM 30.8419 -90.7250 140° Southeast 298 343 8,200 -2,129 Descending Houston Center
Fri 04:19:51 PM 30.7875 -90.6778 143° Southeast 297 342 6,100 -2,103 Descending Houston Center
Fri 04:20:53 PM 30.7256 -90.6183 140° Southeast 292 336 4,100 -1,210 Descending Houston Center
Fri 04:21:55 PM 30.6703 -90.5619 139° Southeast 290 334 3,600 -484 Descending Houston Center
Fri 04:23:00 PM 30.5586 -90.4481 147° Southeast  Level FlightAware Approximate
Fri 04:30:00 PM 30.5167 -90.4167 147° Southeast  Level FlightAware Approximate
Fri 04:31:00 PM 30.5217 -90.4184 147° Southeast  Level Estimated
Fri 04:32:00 PM 30.5167 -90.4167 147° Southeast  Level FlightAware Approximate
Fri 04:33:00 PM 30.5217 -90.4184 147° Southeast  Level Estimated
Fri 04:34:00 PM 30.5167 -90.4167 147° Southeast  Level FlightAware Approximate
Fri 04:35:00 PM 30.5217 -90.4184 147° Southeast  Level Estimated
Fri 04:36:00 PM 30.5167 -90.4167 147° Southeast  Level FlightAware Approximate
Fri 04:37:00 PM 30.5217 -90.4184 147° Southeast  Level Estimated
Fri 04:38:00 PM 30.5167 -90.4167 147° Southeast  Level FlightAware Approximate
Fri 04:39:00 PM 30.5217 -90.4184 147° Southeast  Level Estimated

Login

Don't have an account? Register now (free) for customized features, flight alerts, and more!